sensor_id;sensor_type;location;lat;lon;timestamp;P1;durP1;ratioP1;P2;durP2;ratioP2
549;SDS011;20066;48.764;9.176;2022-10-29T00:01:03;13.03;;;5.60;;
549;SDS011;20066;48.764;9.176;2022-10-29T00:03:32;18.17;;;5.40;;
549;SDS011;20066;48.764;9.176;2022-10-29T00:06:00;15.57;;;5.83;;
549;SDS011;20066;48.764;9.176;2022-10-29T00:08:31;13.20;;;5.90;;
549;SDS011;20066;48.764;9.176;2022-10-29T00:11:05;17.80;;;5.77;;
549;SDS011;20066;48.764;9.176;2022-10-29T00:13:34;34.70;;;5.87;;
549;SDS011;20066;48.764;9.176;2022-10-29T00:16:06;14.20;;;6.03;;
549;SDS011;20066;48.764;9.176;2022-10-29T00:18:36;19.40;;;5.87;;
549;SDS011;20066;48.764;9.176;2022-10-29T00:21:05;20.77;;;5.20;;
549;SDS011;20066;48.764;9.176;2022-10-29T00:23:33;20.83;;;5.07;;
549;SDS011;20066;48.764;9.176;2022-10-29T00:26:01;23.47;;;6.60;;
549;SDS011;20066;48.764;9.176;2022-10-29T00:28:29;18.83;;;5.80;;
549;SDS011;20066;48.764;9.176;2022-10-29T00:31:00;14.53;;;5.10;;
549;SDS011;20066;48.764;9.176;2022-10-29T00:33:29;18.10;;;5.50;;
549;SDS011;20066;48.764;9.176;2022-10-29T00:35:59;14.23;;;5.37;;
549;SDS011;20066;48.764;9.176;2022-10-29T00:38:29;12.63;;;5.40;;
549;SDS011;20066;48.764;9.176;2022-10-29T00:40:57;14.43;;;5.30;;
549;SDS011;20066;48.764;9.176;2022-10-29T00:43:25;12.53;;;4.80;;
549;SDS011;20066;48.764;9.176;2022-10-29T00:45:54;18.00;;;5.70;;
549;SDS011;20066;48.764;9.176;2022-10-29T00:48:26;14.73;;;5.10;;
549;SDS011;20066;48.764;9.176;2022-10-29T00:50:56;17.37;;;5.50;;
549;SDS011;20066;48.764;9.176;2022-10-29T00:53:28;17.50;;;5.33;;
549;SDS011;20066;48.764;9.176;2022-10-29T00:55:59;19.97;;;5.67;;
549;SDS011;20066;48.764;9.176;2022-10-29T00:58:28;19.67;;;5.37;;
549;SDS011;20066;48.764;9.176;2022-10-29T01:00:56;20.60;;;5.37;;
549;SDS011;20066;48.764;9.176;2022-10-29T01:03:24;22.37;;;5.17;;
549;SDS011;20066;48.764;9.176;2022-10-29T01:05:52;16.93;;;5.80;;
549;SDS011;20066;48.764;9.176;2022-10-29T01:08:22;15.60;;;6.07;;
549;SDS011;20066;48.764;9.176;2022-10-29T01:10:52;15.77;;;5.73;;
549;SDS011;20066;48.764;9.176;2022-10-29T01:16:26;14.30;;;4.70;;
549;SDS011;20066;48.764;9.176;2022-10-29T01:19:01;21.67;;;5.97;;
549;SDS011;20066;48.764;9.176;2022-10-29T01:21:38;10.73;;;4.93;;
549;SDS011;20066;48.764;9.176;2022-10-29T01:27:25;16.80;;;6.67;;
549;SDS011;20066;48.764;9.176;2022-10-29T01:30:09;16.70;;;6.30;;
549;SDS011;20066;48.764;9.176;2022-10-29T01:32:50;21.27;;;5.67;;
549;SDS011;20066;48.764;9.176;2022-10-29T01:35:28;17.27;;;5.77;;
549;SDS011;20066;48.764;9.176;2022-10-29T01:38:05;21.30;;;5.77;;
549;SDS011;20066;48.764;9.176;2022-10-29T01:40:44;16.97;;;5.97;;
549;SDS011;20066;48.764;9.176;2022-10-29T01:43:18;17.80;;;5.37;;
549;SDS011;20066;48.764;9.176;2022-10-29T01:45:51;14.53;;;5.20;;
549;SDS011;20066;48.764;9.176;2022-10-29T01:48:25;14.50;;;4.87;;
549;SDS011;20066;48.764;9.176;2022-10-29T01:50:59;9.10;;;4.80;;
549;SDS011;20066;48.764;9.176;2022-10-29T01:53:32;13.83;;;5.07;;
549;SDS011;20066;48.764;9.176;2022-10-29T01:56:02;15.23;;;5.10;;
549;SDS011;20066;48.764;9.176;2022-10-29T01:58:30;12.87;;;6.23;;
549;SDS011;20066;48.764;9.176;2022-10-29T02:01:05;13.80;;;4.93;;
549;SDS011;20066;48.764;9.176;2022-10-29T02:03:47;15.97;;;5.53;;
549;SDS011;20066;48.764;9.176;2022-10-29T02:06:29;12.20;;;4.70;;
549;SDS011;20066;48.764;9.176;2022-10-29T02:09:04;13.63;;;5.47;;
549;SDS011;20066;48.764;9.176;2022-10-29T02:11:39;24.43;;;5.80;;
549;SDS011;20066;48.764;9.176;2022-10-29T02:14:14;20.67;;;5.60;;
549;SDS011;20066;48.764;9.176;2022-10-29T02:16:47;18.90;;;5.77;;
549;SDS011;20066;48.764;9.176;2022-10-29T02:19:17;16.67;;;5.20;;
549;SDS011;20066;48.764;9.176;2022-10-29T02:21:46;15.20;;;5.80;;
549;SDS011;20066;48.764;9.176;2022-10-29T02:24:13;11.07;;;4.80;;
549;SDS011;20066;48.764;9.176;2022-10-29T02:26:41;15.47;;;5.70;;
549;SDS011;20066;48.764;9.176;2022-10-29T02:29:10;17.07;;;5.63;;
549;SDS011;20066;48.764;9.176;2022-10-29T02:31:38;14.10;;;5.07;;
549;SDS011;20066;48.764;9.176;2022-10-29T02:34:06;15.93;;;5.10;;
549;SDS011;20066;48.764;9.176;2022-10-29T02:36:35;23.33;;;5.67;;
549;SDS011;20066;48.764;9.176;2022-10-29T02:39:03;13.20;;;5.30;;
549;SDS011;20066;48.764;9.176;2022-10-29T02:41:31;13.97;;;4.57;;
549;SDS011;20066;48.764;9.176;2022-10-29T02:43:59;14.77;;;4.80;;
549;SDS011;20066;48.764;9.176;2022-10-29T02:46:27;21.17;;;5.20;;
549;SDS011;20066;48.764;9.176;2022-10-29T02:48:55;12.77;;;4.80;;
549;SDS011;20066;48.764;9.176;2022-10-29T02:51:23;16.53;;;5.40;;
549;SDS011;20066;48.764;9.176;2022-10-29T02:53:52;16.03;;;4.77;;
549;SDS011;20066;48.764;9.176;2022-10-29T02:56:20;12.13;;;4.80;;
549;SDS011;20066;48.764;9.176;2022-10-29T02:58:48;16.20;;;5.73;;
549;SDS011;20066;48.764;9.176;2022-10-29T03:01:15;11.03;;;5.27;;
549;SDS011;20066;48.764;9.176;2022-10-29T03:03:44;17.63;;;5.07;;
549;SDS011;20066;48.764;9.176;2022-10-29T03:06:12;11.50;;;4.77;;
549;SDS011;20066;48.764;9.176;2022-10-29T03:08:40;16.37;;;5.50;;
549;SDS011;20066;48.764;9.176;2022-10-29T03:11:10;11.77;;;5.00;;
549;SDS011;20066;48.764;9.176;2022-10-29T03:13:38;12.63;;;4.77;;
549;SDS011;20066;48.764;9.176;2022-10-29T03:16:06;22.70;;;5.87;;
549;SDS011;20066;48.764;9.176;2022-10-29T03:18:34;11.70;;;4.80;;
549;SDS011;20066;48.764;9.176;2022-10-29T03:21:02;12.57;;;4.87;;
549;SDS011;20066;48.764;9.176;2022-10-29T03:23:29;16.53;;;6.10;;
549;SDS011;20066;48.764;9.176;2022-10-29T03:25:57;12.53;;;5.23;;
549;SDS011;20066;48.764;9.176;2022-10-29T03:28:27;18.43;;;5.60;;
549;SDS011;20066;48.764;9.176;2022-10-29T03:30:56;15.43;;;6.50;;
549;SDS011;20066;48.764;9.176;2022-10-29T03:33:24;14.53;;;5.73;;
549;SDS011;20066;48.764;9.176;2022-10-29T03:35:55;15.03;;;5.73;;
549;SDS011;20066;48.764;9.176;2022-10-29T03:38:24;12.20;;;5.03;;
549;SDS011;20066;48.764;9.176;2022-10-29T03:40:52;18.10;;;5.40;;
549;SDS011;20066;48.764;9.176;2022-10-29T03:43:21;12.50;;;5.53;;
549;SDS011;20066;48.764;9.176;2022-10-29T03:45:50;17.10;;;5.43;;
549;SDS011;20066;48.764;9.176;2022-10-29T03:48:19;15.07;;;5.80;;
549;SDS011;20066;48.764;9.176;2022-10-29T03:50:52;14.10;;;5.43;;
549;SDS011;20066;48.764;9.176;2022-10-29T03:53:20;18.63;;;5.60;;
549;SDS011;20066;48.764;9.176;2022-10-29T03:55:49;18.93;;;5.23;;
549;SDS011;20066;48.764;9.176;2022-10-29T03:58:17;17.53;;;5.37;;
549;SDS011;20066;48.764;9.176;2022-10-29T04:00:53;15.73;;;5.60;;
549;SDS011;20066;48.764;9.176;2022-10-29T04:03:21;10.57;;;5.10;;
549;SDS011;20066;48.764;9.176;2022-10-29T04:05:49;16.43;;;4.97;;
549;SDS011;20066;48.764;9.176;2022-10-29T04:08:17;10.87;;;4.83;;
549;SDS011;20066;48.764;9.176;2022-10-29T04:10:46;13.10;;;5.03;;
549;SDS011;20066;48.764;9.176;2022-10-29T04:13:15;17.60;;;5.00;;
549;SDS011;20066;48.764;9.176;2022-10-29T04:15:44;12.10;;;5.10;;
549;SDS011;20066;48.764;9.176;2022-10-29T04:18:14;15.33;;;5.27;;
549;SDS011;20066;48.764;9.176;2022-10-29T04:20:42;18.57;;;5.67;;
549;SDS011;20066;48.764;9.176;2022-10-29T04:23:29;19.43;;;6.47;;
549;SDS011;20066;48.764;9.176;2022-10-29T04:26:17;20.30;;;5.57;;
549;SDS011;20066;48.764;9.176;2022-10-29T04:29:05;12.77;;;5.43;;
549;SDS011;20066;48.764;9.176;2022-10-29T04:31:33;19.60;;;6.07;;
549;SDS011;20066;48.764;9.176;2022-10-29T04:34:02;12.20;;;5.23;;
549;SDS011;20066;48.764;9.176;2022-10-29T04:36:30;14.73;;;6.13;;
549;SDS011;20066;48.764;9.176;2022-10-29T04:38:58;19.40;;;7.27;;
549;SDS011;20066;48.764;9.176;2022-10-29T04:41:26;16.77;;;7.63;;
549;SDS011;20066;48.764;9.176;2022-10-29T04:43:53;14.83;;;5.83;;
549;SDS011;20066;48.764;9.176;2022-10-29T04:46:21;14.50;;;5.80;;
549;SDS011;20066;48.764;9.176;2022-10-29T04:48:49;15.57;;;6.07;;
549;SDS011;20066;48.764;9.176;2022-10-29T04:51:19;13.50;;;5.90;;
549;SDS011;20066;48.764;9.176;2022-10-29T04:53:47;13.10;;;5.53;;
549;SDS011;20066;48.764;9.176;2022-10-29T04:56:15;11.20;;;5.17;;
549;SDS011;20066;48.764;9.176;2022-10-29T04:58:44;12.30;;;4.90;;
549;SDS011;20066;48.764;9.176;2022-10-29T05:01:12;14.57;;;4.93;;
549;SDS011;20066;48.764;9.176;2022-10-29T05:03:39;17.10;;;5.40;;
549;SDS011;20066;48.764;9.176;2022-10-29T05:06:07;15.07;;;5.40;;
549;SDS011;20066;48.764;9.176;2022-10-29T05:08:37;20.10;;;5.97;;
549;SDS011;20066;48.764;9.176;2022-10-29T05:11:05;17.63;;;5.60;;
549;SDS011;20066;48.764;9.176;2022-10-29T05:13:33;14.27;;;5.50;;
549;SDS011;20066;48.764;9.176;2022-10-29T05:16:01;13.50;;;6.30;;
549;SDS011;20066;48.764;9.176;2022-10-29T05:18:29;16.33;;;5.77;;
549;SDS011;20066;48.764;9.176;2022-10-29T05:20:57;10.93;;;5.57;;
549;SDS011;20066;48.764;9.176;2022-10-29T05:23:24;8.70;;;5.77;;
549;SDS011;20066;48.764;9.176;2022-10-29T05:25:54;20.87;;;6.20;;
549;SDS011;20066;48.764;9.176;2022-10-29T05:28:22;13.43;;;5.50;;
549;SDS011;20066;48.764;9.176;2022-10-29T05:30:51;12.60;;;5.60;;
549;SDS011;20066;48.764;9.176;2022-10-29T05:33:20;16.27;;;5.60;;
549;SDS011;20066;48.764;9.176;2022-10-29T05:35:49;17.53;;;6.13;;
549;SDS011;20066;48.764;9.176;2022-10-29T05:38:18;17.97;;;5.60;;
549;SDS011;20066;48.764;9.176;2022-10-29T05:40:46;16.63;;;6.57;;
549;SDS011;20066;48.764;9.176;2022-10-29T05:43:15;10.53;;;4.70;;
549;SDS011;20066;48.764;9.176;2022-10-29T05:45:43;11.93;;;5.07;;
549;SDS011;20066;48.764;9.176;2022-10-29T05:48:11;13.20;;;5.70;;
549;SDS011;20066;48.764;9.176;2022-10-29T05:50:39;14.63;;;5.50;;
549;SDS011;20066;48.764;9.176;2022-10-29T05:53:09;11.60;;;4.80;;
549;SDS011;20066;48.764;9.176;2022-10-29T05:55:38;15.97;;;5.90;;
549;SDS011;20066;48.764;9.176;2022-10-29T05:58:08;13.63;;;5.70;;
549;SDS011;20066;48.764;9.176;2022-10-29T06:00:40;14.57;;;5.40;;
549;SDS011;20066;48.764;9.176;2022-10-29T06:03:10;21.17;;;6.90;;
549;SDS011;20066;48.764;9.176;2022-10-29T06:05:39;14.20;;;5.53;;
549;SDS011;20066;48.764;9.176;2022-10-29T06:08:07;17.30;;;6.27;;
549;SDS011;20066;48.764;9.176;2022-10-29T06:10:35;20.10;;;5.87;;
549;SDS011;20066;48.764;9.176;2022-10-29T06:13:08;20.23;;;5.33;;
549;SDS011;20066;48.764;9.176;2022-10-29T06:15:36;13.40;;;6.33;;
549;SDS011;20066;48.764;9.176;2022-10-29T06:18:05;19.93;;;6.40;;
549;SDS011;20066;48.764;9.176;2022-10-29T06:20:34;14.80;;;5.87;;
549;SDS011;20066;48.764;9.176;2022-10-29T06:23:04;14.50;;;5.40;;
549;SDS011;20066;48.764;9.176;2022-10-29T06:25:32;11.97;;;5.20;;
549;SDS011;20066;48.764;9.176;2022-10-29T06:28:00;14.47;;;5.80;;
549;SDS011;20066;48.764;9.176;2022-10-29T06:30:29;16.53;;;6.30;;
549;SDS011;20066;48.764;9.176;2022-10-29T06:32:58;15.37;;;5.77;;
549;SDS011;20066;48.764;9.176;2022-10-29T06:35:27;15.63;;;5.80;;
549;SDS011;20066;48.764;9.176;2022-10-29T06:37:56;13.07;;;5.10;;
549;SDS011;20066;48.764;9.176;2022-10-29T06:40:24;22.47;;;5.90;;
549;SDS011;20066;48.764;9.176;2022-10-29T06:42:57;19.17;;;5.23;;
549;SDS011;20066;48.764;9.176;2022-10-29T06:45:26;16.90;;;5.70;;
549;SDS011;20066;48.764;9.176;2022-10-29T06:47:54;12.83;;;5.47;;
549;SDS011;20066;48.764;9.176;2022-10-29T06:50:22;15.10;;;6.10;;
549;SDS011;20066;48.764;9.176;2022-10-29T06:52:55;13.77;;;6.00;;
549;SDS011;20066;48.764;9.176;2022-10-29T06:55:24;18.40;;;6.30;;
549;SDS011;20066;48.764;9.176;2022-10-29T06:57:56;11.50;;;5.90;;
549;SDS011;20066;48.764;9.176;2022-10-29T07:00:25;20.67;;;6.30;;
549;SDS011;20066;48.764;9.176;2022-10-29T07:02:53;14.10;;;5.63;;
549;SDS011;20066;48.764;9.176;2022-10-29T07:05:22;16.40;;;6.23;;
549;SDS011;20066;48.764;9.176;2022-10-29T07:07:53;21.23;;;6.30;;
549;SDS011;20066;48.764;9.176;2022-10-29T07:10:23;13.57;;;5.93;;
549;SDS011;20066;48.764;9.176;2022-10-29T07:12:52;23.67;;;6.70;;
549;SDS011;20066;48.764;9.176;2022-10-29T07:15:20;16.63;;;6.57;;
549;SDS011;20066;48.764;9.176;2022-10-29T07:17:55;17.10;;;7.17;;
549;SDS011;20066;48.764;9.176;2022-10-29T07:20:24;22.23;;;6.13;;
549;SDS011;20066;48.764;9.176;2022-10-29T07:22:52;16.83;;;6.20;;
549;SDS011;20066;48.764;9.176;2022-10-29T07:25:20;13.53;;;5.67;;
549;SDS011;20066;48.764;9.176;2022-10-29T07:27:50;18.27;;;6.50;;
549;SDS011;20066;48.764;9.176;2022-10-29T07:30:18;23.43;;;7.30;;
549;SDS011;20066;48.764;9.176;2022-10-29T07:32:45;23.07;;;8.63;;
549;SDS011;20066;48.764;9.176;2022-10-29T07:35:14;15.70;;;7.20;;
549;SDS011;20066;48.764;9.176;2022-10-29T07:37:42;18.40;;;7.03;;
549;SDS011;20066;48.764;9.176;2022-10-29T07:40:10;17.17;;;5.87;;
549;SDS011;20066;48.764;9.176;2022-10-29T07:42:39;24.53;;;7.10;;
549;SDS011;20066;48.764;9.176;2022-10-29T07:45:08;19.43;;;7.20;;
549;SDS011;20066;48.764;9.176;2022-10-29T07:47:36;29.13;;;8.03;;
549;SDS011;20066;48.764;9.176;2022-10-29T07:50:04;19.00;;;8.47;;
549;SDS011;20066;48.764;9.176;2022-10-29T07:52:33;21.50;;;7.53;;
549;SDS011;20066;48.764;9.176;2022-10-29T07:55:01;22.27;;;7.30;;
549;SDS011;20066;48.764;9.176;2022-10-29T07:57:28;19.43;;;8.00;;
549;SDS011;20066;48.764;9.176;2022-10-29T07:59:56;20.57;;;7.60;;
549;SDS011;20066;48.764;9.176;2022-10-29T08:02:26;20.47;;;7.50;;
549;SDS011;20066;48.764;9.176;2022-10-29T08:04:53;12.83;;;7.73;;
549;SDS011;20066;48.764;9.176;2022-10-29T08:07:21;13.17;;;7.23;;
549;SDS011;20066;48.764;9.176;2022-10-29T08:09:49;23.27;;;7.33;;
549;SDS011;20066;48.764;9.176;2022-10-29T08:12:17;18.70;;;7.30;;
549;SDS011;20066;48.764;9.176;2022-10-29T08:14:46;20.87;;;6.27;;
549;SDS011;20066;48.764;9.176;2022-10-29T08:17:14;15.33;;;6.83;;
549;SDS011;20066;48.764;9.176;2022-10-29T08:19:44;19.97;;;7.50;;
549;SDS011;20066;48.764;9.176;2022-10-29T08:22:12;20.87;;;7.30;;
549;SDS011;20066;48.764;9.176;2022-10-29T08:24:40;25.70;;;7.33;;
549;SDS011;20066;48.764;9.176;2022-10-29T08:27:09;17.10;;;7.03;;
549;SDS011;20066;48.764;9.176;2022-10-29T08:29:41;19.83;;;6.77;;
549;SDS011;20066;48.764;9.176;2022-10-29T08:32:11;16.33;;;6.07;;
549;SDS011;20066;48.764;9.176;2022-10-29T08:34:39;19.07;;;6.70;;
549;SDS011;20066;48.764;9.176;2022-10-29T08:37:12;18.27;;;6.87;;
549;SDS011;20066;48.764;9.176;2022-10-29T08:39:39;23.17;;;7.00;;
549;SDS011;20066;48.764;9.176;2022-10-29T08:42:09;15.67;;;6.90;;
549;SDS011;20066;48.764;9.176;2022-10-29T08:45:00;20.73;;;7.57;;
549;SDS011;20066;48.764;9.176;2022-10-29T08:47:43;14.33;;;6.17;;
549;SDS011;20066;48.764;9.176;2022-10-29T08:50:23;19.50;;;6.53;;
549;SDS011;20066;48.764;9.176;2022-10-29T08:52:58;17.40;;;6.50;;
549;SDS011;20066;48.764;9.176;2022-10-29T08:55:48;13.70;;;6.37;;
549;SDS011;20066;48.764;9.176;2022-10-29T08:58:21;20.77;;;7.20;;
549;SDS011;20066;48.764;9.176;2022-10-29T09:00:59;17.23;;;5.90;;
549;SDS011;20066;48.764;9.176;2022-10-29T09:03:28;16.60;;;5.60;;
549;SDS011;20066;48.764;9.176;2022-10-29T09:06:00;13.40;;;6.07;;
549;SDS011;20066;48.764;9.176;2022-10-29T09:08:38;12.87;;;6.10;;
549;SDS011;20066;48.764;9.176;2022-10-29T09:11:18;21.13;;;6.03;;
549;SDS011;20066;48.764;9.176;2022-10-29T09:14:01;19.00;;;6.67;;
549;SDS011;20066;48.764;9.176;2022-10-29T09:16:42;21.60;;;7.30;;
549;SDS011;20066;48.764;9.176;2022-10-29T09:19:23;15.83;;;6.60;;
549;SDS011;20066;48.764;9.176;2022-10-29T09:22:18;21.90;;;6.87;;
549;SDS011;20066;48.764;9.176;2022-10-29T09:24:59;22.90;;;6.30;;
549;SDS011;20066;48.764;9.176;2022-10-29T09:27:38;16.30;;;6.70;;
549;SDS011;20066;48.764;9.176;2022-10-29T09:30:11;14.73;;;7.13;;
549;SDS011;20066;48.764;9.176;2022-10-29T09:32:42;16.50;;;6.27;;
549;SDS011;20066;48.764;9.176;2022-10-29T09:35:19;22.67;;;7.23;;
549;SDS011;20066;48.764;9.176;2022-10-29T09:37:57;19.77;;;7.70;;
549;SDS011;20066;48.764;9.176;2022-10-29T09:40:31;19.20;;;7.30;;
549;SDS011;20066;48.764;9.176;2022-10-29T09:43:04;19.27;;;7.70;;
549;SDS011;20066;48.764;9.176;2022-10-29T09:45:40;26.00;;;8.57;;
549;SDS011;20066;48.764;9.176;2022-10-29T09:48:16;19.53;;;7.97;;
549;SDS011;20066;48.764;9.176;2022-10-29T09:50:52;26.60;;;8.27;;
549;SDS011;20066;48.764;9.176;2022-10-29T09:53:24;22.27;;;8.37;;
549;SDS011;20066;48.764;9.176;2022-10-29T09:55:54;16.43;;;6.57;;
549;SDS011;20066;48.764;9.176;2022-10-29T09:58:22;20.73;;;6.80;;
549;SDS011;20066;48.764;9.176;2022-10-29T10:00:54;30.47;;;8.50;;
549;SDS011;20066;48.764;9.176;2022-10-29T10:03:24;22.23;;;7.80;;
549;SDS011;20066;48.764;9.176;2022-10-29T10:05:56;19.00;;;6.60;;
549;SDS011;20066;48.764;9.176;2022-10-29T10:08:26;18.13;;;7.70;;
549;SDS011;20066;48.764;9.176;2022-10-29T10:10:56;22.27;;;6.40;;
549;SDS011;20066;48.764;9.176;2022-10-29T10:13:27;14.80;;;5.93;;
549;SDS011;20066;48.764;9.176;2022-10-29T10:15:56;15.20;;;6.07;;
549;SDS011;20066;48.764;9.176;2022-10-29T10:18:26;16.17;;;5.77;;
549;SDS011;20066;48.764;9.176;2022-10-29T10:21:05;16.40;;;5.80;;
549;SDS011;20066;48.764;9.176;2022-10-29T10:23:40;19.27;;;6.37;;
549;SDS011;20066;48.764;9.176;2022-10-29T10:26:28;16.17;;;6.00;;
549;SDS011;20066;48.764;9.176;2022-10-29T10:29:07;19.93;;;6.80;;
549;SDS011;20066;48.764;9.176;2022-10-29T10:31:37;23.53;;;6.20;;
549;SDS011;20066;48.764;9.176;2022-10-29T10:34:13;20.33;;;6.10;;
549;SDS011;20066;48.764;9.176;2022-10-29T10:36:46;26.53;;;7.33;;
549;SDS011;20066;48.764;9.176;2022-10-29T10:39:26;21.17;;;7.00;;
549;SDS011;20066;48.764;9.176;2022-10-29T10:41:58;21.10;;;6.60;;
549;SDS011;20066;48.764;9.176;2022-10-29T10:44:30;17.60;;;6.33;;
549;SDS011;20066;48.764;9.176;2022-10-29T10:46:58;29.27;;;6.70;;
549;SDS011;20066;48.764;9.176;2022-10-29T10:49:33;17.60;;;6.17;;
549;SDS011;20066;48.764;9.176;2022-10-29T10:52:03;19.10;;;6.27;;
549;SDS011;20066;48.764;9.176;2022-10-29T10:54:33;15.80;;;6.43;;
549;SDS011;20066;48.764;9.176;2022-10-29T10:57:18;19.70;;;6.47;;
549;SDS011;20066;48.764;9.176;2022-10-29T10:59:51;15.20;;;6.23;;
549;SDS011;20066;48.764;9.176;2022-10-29T11:02:24;12.50;;;5.67;;
549;SDS011;20066;48.764;9.176;2022-10-29T11:05:02;15.93;;;5.50;;
549;SDS011;20066;48.764;9.176;2022-10-29T11:07:38;14.90;;;5.87;;
549;SDS011;20066;48.764;9.176;2022-10-29T11:10:12;27.13;;;5.20;;
549;SDS011;20066;48.764;9.176;2022-10-29T11:12:45;16.70;;;5.83;;
549;SDS011;20066;48.764;9.176;2022-10-29T11:15:17;13.73;;;5.60;;
549;SDS011;20066;48.764;9.176;2022-10-29T11:17:53;13.70;;;6.50;;
549;SDS011;20066;48.764;9.176;2022-10-29T11:20:25;20.13;;;8.00;;
549;SDS011;20066;48.764;9.176;2022-10-29T11:23:03;29.00;;;6.47;;
549;SDS011;20066;48.764;9.176;2022-10-29T11:25:41;16.13;;;5.97;;
549;SDS011;20066;48.764;9.176;2022-10-29T11:28:18;20.73;;;6.30;;
549;SDS011;20066;48.764;9.176;2022-10-29T11:30:51;18.23;;;6.97;;
549;SDS011;20066;48.764;9.176;2022-10-29T11:33:23;23.40;;;6.67;;
549;SDS011;20066;48.764;9.176;2022-10-29T11:36:00;17.73;;;7.00;;
549;SDS011;20066;48.764;9.176;2022-10-29T11:38:38;15.83;;;6.40;;
549;SDS011;20066;48.764;9.176;2022-10-29T11:41:15;24.70;;;8.27;;
549;SDS011;20066;48.764;9.176;2022-10-29T11:43:51;25.80;;;7.97;;
549;SDS011;20066;48.764;9.176;2022-10-29T11:46:21;24.20;;;7.50;;
549;SDS011;20066;48.764;9.176;2022-10-29T11:49:01;28.57;;;9.10;;
549;SDS011;20066;48.764;9.176;2022-10-29T11:51:39;21.83;;;7.60;;
549;SDS011;20066;48.764;9.176;2022-10-29T11:54:17;24.60;;;7.40;;
549;SDS011;20066;48.764;9.176;2022-10-29T11:56:57;17.23;;;6.70;;
549;SDS011;20066;48.764;9.176;2022-10-29T11:59:32;21.47;;;6.27;;
549;SDS011;20066;48.764;9.176;2022-10-29T12:02:12;12.93;;;6.77;;
549;SDS011;20066;48.764;9.176;2022-10-29T12:04:53;21.67;;;7.10;;
549;SDS011;20066;48.764;9.176;2022-10-29T12:07:31;21.73;;;6.83;;
549;SDS011;20066;48.764;9.176;2022-10-29T12:10:22;24.13;;;6.23;;
549;SDS011;20066;48.764;9.176;2022-10-29T12:12:59;24.80;;;6.97;;
549;SDS011;20066;48.764;9.176;2022-10-29T12:15:37;26.20;;;6.57;;
549;SDS011;20066;48.764;9.176;2022-10-29T12:18:13;16.43;;;6.70;;
549;SDS011;20066;48.764;9.176;2022-10-29T12:20:49;24.27;;;7.07;;
549;SDS011;20066;48.764;9.176;2022-10-29T12:23:25;22.43;;;6.33;;
549;SDS011;20066;48.764;9.176;2022-10-29T12:26:00;21.30;;;7.53;;
549;SDS011;20066;48.764;9.176;2022-10-29T12:28:36;25.00;;;7.10;;
549;SDS011;20066;48.764;9.176;2022-10-29T12:31:21;18.53;;;6.47;;
549;SDS011;20066;48.764;9.176;2022-10-29T12:34:06;21.10;;;6.87;;
549;SDS011;20066;48.764;9.176;2022-10-29T12:36:40;19.53;;;6.70;;
549;SDS011;20066;48.764;9.176;2022-10-29T12:39:21;19.70;;;6.30;;
549;SDS011;20066;48.764;9.176;2022-10-29T12:41:56;21.67;;;7.07;;
549;SDS011;20066;48.764;9.176;2022-10-29T12:44:29;19.23;;;7.00;;
549;SDS011;20066;48.764;9.176;2022-10-29T12:47:12;16.00;;;6.20;;
549;SDS011;20066;48.764;9.176;2022-10-29T12:49:50;20.23;;;6.53;;
549;SDS011;20066;48.764;9.176;2022-10-29T12:52:30;18.73;;;6.60;;
549;SDS011;20066;48.764;9.176;2022-10-29T12:55:08;21.57;;;7.40;;
549;SDS011;20066;48.764;9.176;2022-10-29T12:57:38;25.07;;;6.83;;
549;SDS011;20066;48.764;9.176;2022-10-29T13:03:00;21.37;;;7.27;;
549;SDS011;20066;48.764;9.176;2022-10-29T13:05:41;17.43;;;7.27;;
549;SDS011;20066;48.764;9.176;2022-10-29T13:08:16;22.07;;;7.13;;
549;SDS011;20066;48.764;9.176;2022-10-29T13:10:53;27.13;;;6.10;;
549;SDS011;20066;48.764;9.176;2022-10-29T13:13:24;22.07;;;6.87;;
549;SDS011;20066;48.764;9.176;2022-10-29T13:16:06;21.83;;;6.97;;
549;SDS011;20066;48.764;9.176;2022-10-29T13:18:43;19.40;;;6.40;;
549;SDS011;20066;48.764;9.176;2022-10-29T13:24:16;13.43;;;6.20;;
549;SDS011;20066;48.764;9.176;2022-10-29T13:26:52;17.97;;;6.40;;
549;SDS011;20066;48.764;9.176;2022-10-29T13:29:44;18.40;;;7.17;;
549;SDS011;20066;48.764;9.176;2022-10-29T13:32:29;16.70;;;6.83;;
549;SDS011;20066;48.764;9.176;2022-10-29T13:35:04;21.27;;;7.00;;
549;SDS011;20066;48.764;9.176;2022-10-29T13:37:52;21.30;;;7.43;;
549;SDS011;20066;48.764;9.176;2022-10-29T13:40:40;14.70;;;6.13;;
549;SDS011;20066;48.764;9.176;2022-10-29T13:43:23;17.67;;;5.60;;
549;SDS011;20066;48.764;9.176;2022-10-29T13:45:58;27.40;;;6.30;;
549;SDS011;20066;48.764;9.176;2022-10-29T13:48:30;20.90;;;5.60;;
549;SDS011;20066;48.764;9.176;2022-10-29T13:51:03;20.43;;;5.53;;
549;SDS011;20066;48.764;9.176;2022-10-29T13:53:37;21.40;;;5.50;;
549;SDS011;20066;48.764;9.176;2022-10-29T13:56:09;17.70;;;5.20;;
549;SDS011;20066;48.764;9.176;2022-10-29T13:58:43;23.87;;;7.10;;
549;SDS011;20066;48.764;9.176;2022-10-29T14:01:15;18.63;;;5.73;;
549;SDS011;20066;48.764;9.176;2022-10-29T14:03:49;23.37;;;5.63;;
549;SDS011;20066;48.764;9.176;2022-10-29T14:06:25;14.30;;;5.77;;
549;SDS011;20066;48.764;9.176;2022-10-29T14:08:58;22.93;;;6.53;;
549;SDS011;20066;48.764;9.176;2022-10-29T14:11:42;23.90;;;5.50;;
549;SDS011;20066;48.764;9.176;2022-10-29T14:14:19;16.63;;;4.90;;
549;SDS011;20066;48.764;9.176;2022-10-29T14:16:57;21.00;;;5.70;;
549;SDS011;20066;48.764;9.176;2022-10-29T14:19:35;21.20;;;6.07;;
549;SDS011;20066;48.764;9.176;2022-10-29T14:22:15;22.07;;;6.87;;
549;SDS011;20066;48.764;9.176;2022-10-29T14:24:49;11.33;;;5.13;;
549;SDS011;20066;48.764;9.176;2022-10-29T14:27:21;14.90;;;7.60;;
549;SDS011;20066;48.764;9.176;2022-10-29T14:29:49;21.93;;;5.90;;
549;SDS011;20066;48.764;9.176;2022-10-29T14:32:21;20.77;;;6.27;;
549;SDS011;20066;48.764;9.176;2022-10-29T14:34:49;20.30;;;6.20;;
549;SDS011;20066;48.764;9.176;2022-10-29T14:37:21;18.00;;;5.50;;
549;SDS011;20066;48.764;9.176;2022-10-29T14:39:56;21.00;;;6.90;;
549;SDS011;20066;48.764;9.176;2022-10-29T14:42:29;15.90;;;6.57;;
549;SDS011;20066;48.764;9.176;2022-10-29T14:44:58;20.40;;;6.37;;
549;SDS011;20066;48.764;9.176;2022-10-29T14:47:29;18.40;;;6.50;;
549;SDS011;20066;48.764;9.176;2022-10-29T14:49:59;18.77;;;5.27;;
549;SDS011;20066;48.764;9.176;2022-10-29T14:52:32;22.17;;;5.60;;
549;SDS011;20066;48.764;9.176;2022-10-29T14:55:05;16.13;;;5.70;;
549;SDS011;20066;48.764;9.176;2022-10-29T14:57:37;21.73;;;5.53;;
549;SDS011;20066;48.764;9.176;2022-10-29T15:00:20;22.70;;;5.60;;
549;SDS011;20066;48.764;9.176;2022-10-29T15:02:49;18.20;;;5.77;;
549;SDS011;20066;48.764;9.176;2022-10-29T15:05:21;18.57;;;6.30;;
549;SDS011;20066;48.764;9.176;2022-10-29T15:07:52;23.20;;;7.10;;
549;SDS011;20066;48.764;9.176;2022-10-29T15:10:30;23.60;;;6.53;;
549;SDS011;20066;48.764;9.176;2022-10-29T15:12:58;29.50;;;7.40;;
549;SDS011;20066;48.764;9.176;2022-10-29T15:15:49;15.13;;;6.10;;
549;SDS011;20066;48.764;9.176;2022-10-29T15:18:18;26.53;;;6.50;;
549;SDS011;20066;48.764;9.176;2022-10-29T15:20:49;20.30;;;6.33;;
549;SDS011;20066;48.764;9.176;2022-10-29T15:23:23;19.00;;;7.20;;
549;SDS011;20066;48.764;9.176;2022-10-29T15:25:56;30.17;;;7.13;;
549;SDS011;20066;48.764;9.176;2022-10-29T15:28:26;18.17;;;6.70;;
549;SDS011;20066;48.764;9.176;2022-10-29T15:30:55;22.90;;;6.63;;
549;SDS011;20066;48.764;9.176;2022-10-29T15:33:27;21.27;;;5.70;;
549;SDS011;20066;48.764;9.176;2022-10-29T15:35:57;29.60;;;6.27;;
549;SDS011;20066;48.764;9.176;2022-10-29T15:41:42;13.73;;;5.70;;
549;SDS011;20066;48.764;9.176;2022-10-29T15:47:18;17.80;;;7.10;;
549;SDS011;20066;48.764;9.176;2022-10-29T15:49:47;14.17;;;6.43;;